Time;durP1;ratioP1;P1;durP2;ratioP2;P2;SDS_P1;SDS_P2;PMS_P1;PMS_P2;Temp;Humidity;BMP_temperature;BMP_pressure;BME280_temperature;BME280_humidity;BME280_pressure;Samples;Min_cycle;Max_cycle;Signal;HPM_P1;HPM_P2
2024/01/28 00:01:39;;;;;;;1999.90;999.90;;;-2.30;99.50;;;;;;5086586;28;20039;-76
2024/01/28 00:04:05;;;;;;;1999.90;999.90;;;-2.30;99.60;;;;;;5086373;28;20035;-76
2024/01/28 00:06:31;;;;;;;1999.90;999.90;;;-2.20;99.90;;;;;;5097248;27;20043;-76
2024/01/28 00:08:56;;;;;;;1999.90;999.90;;;-2.10;99.90;;;;;;5103296;27;20437;-76
2024/01/28 00:11:22;;;;;;;1999.90;999.90;;;-2.10;99.90;;;;;;5070726;28;20497;-76
2024/01/28 00:13:48;;;;;;;1999.90;999.90;;;-2.10;99.90;;;;;;5106135;28;20066;-76
2024/01/28 00:16:14;;;;;;;1999.90;999.90;;;-2.10;99.90;;;;;;5086770;28;20038;-76
2024/01/28 00:18:40;;;;;;;1999.90;999.90;;;-2.10;99.90;;;;;;5104334;28;20909;-76
2024/01/28 00:21:06;;;;;;;1999.90;999.90;;;-2.00;99.90;;;;;;5086362;28;20028;-76
2024/01/28 00:23:32;;;;;;;1999.90;999.90;;;-2.00;99.90;;;;;;5103786;28;20121;-76
2024/01/28 00:25:57;;;;;;;1999.90;999.90;;;-1.90;99.90;;;;;;5104486;28;20020;-75
2024/01/28 00:28:23;;;;;;;1999.90;999.90;;;-1.90;99.90;;;;;;5084765;28;20027;-75
2024/01/28 00:30:49;;;;;;;1999.90;999.90;;;-2.00;99.90;;;;;;5072653;28;20039;-75
2024/01/28 00:33:15;;;;;;;1999.90;999.90;;;-2.00;99.90;;;;;;5097711;28;20406;-76
2024/01/28 00:35:40;;;;;;;1999.90;999.90;;;-2.00;99.90;;;;;;5103121;28;20039;-75
2024/01/28 00:38:06;;;;;;;1999.90;999.90;;;-2.00;99.90;;;;;;5099762;28;20480;-75
2024/01/28 00:40:32;;;;;;;1999.90;999.90;;;-2.10;99.90;;;;;;5106905;28;20024;-75
2024/01/28 00:42:58;;;;;;;1999.90;999.90;;;-2.10;99.90;;;;;;5101409;28;20036;-76
2024/01/28 00:45:23;;;;;;;1999.90;999.90;;;-2.00;99.90;;;;;;5103370;28;20024;-76
2024/01/28 00:47:49;;;;;;;1999.90;999.90;;;-2.00;99.90;;;;;;5087947;28;20119;-76
2024/01/28 00:50:15;;;;;;;1999.90;999.90;;;-2.00;99.90;;;;;;5104739;28;20042;-76
2024/01/28 00:52:40;;;;;;;1999.90;999.90;;;-2.00;99.90;;;;;;5086341;28;20028;-76
2024/01/28 00:55:07;;;;;;;1999.90;999.90;;;-2.10;99.90;;;;;;5103058;28;20057;-76
2024/01/28 00:57:32;;;;;;;1999.90;999.90;;;-2.10;99.90;;;;;;5067028;28;20371;-76
2024/01/28 00:59:58;;;;;;;1999.90;999.90;;;-2.10;99.90;;;;;;5074602;28;20120;-76
2024/01/28 01:02:23;;;;;;;1999.90;999.90;;;-2.20;99.90;;;;;;5097773;28;20076;-76
2024/01/28 01:04:49;;;;;;;1999.90;999.90;;;-2.30;99.90;;;;;;5106431;28;20622;-76
2024/01/28 01:07:15;;;;;;;1999.90;999.90;;;-2.20;99.90;;;;;;5101936;28;20628;-76
2024/01/28 01:09:41;;;;;;;1999.90;999.90;;;-2.20;99.90;;;;;;5101231;28;20190;-76
2024/01/28 01:12:07;;;;;;;1999.90;999.90;;;-2.20;99.90;;;;;;5105162;28;20115;-75
2024/01/28 01:14:35;;;;;;;1999.90;999.90;;;-2.20;99.90;;;;;;5100136;28;20539;-75
2024/01/28 01:17:02;;;;;;;1999.90;999.90;;;-2.20;99.90;;;;;;5085606;28;20081;-76
2024/01/28 01:19:28;;;;;;;1999.90;999.90;;;-2.10;99.90;;;;;;5102267;28;20039;-76
2024/01/28 01:21:53;;;;;;;1999.90;999.90;;;-2.20;99.90;;;;;;5086269;28;20505;-76
2024/01/28 01:24:19;;;;;;;1999.90;999.90;;;-2.20;99.90;;;;;;5087789;28;20025;-76
2024/01/28 01:26:45;;;;;;;1999.90;999.90;;;-2.20;99.90;;;;;;5105839;27;20073;-76
2024/01/28 01:29:10;;;;;;;1999.90;999.90;;;-2.20;99.90;;;;;;5090423;28;20028;-75
2024/01/28 01:31:36;;;;;;;1999.90;999.90;;;-2.20;99.90;;;;;;5101511;28;20113;-76
2024/01/28 01:34:03;;;;;;;1999.90;999.90;;;-2.20;99.90;;;;;;5088904;28;20042;-75
2024/01/28 01:36:29;;;;;;;1999.90;999.90;;;-2.20;99.90;;;;;;5088316;28;20053;-76
2024/01/28 01:38:56;;;;;;;1999.90;999.90;;;-2.30;99.90;;;;;;5104114;28;20020;-78
2024/01/28 01:41:23;;;;;;;1999.90;999.90;;;-2.20;99.90;;;;;;5090049;28;20081;-76
2024/01/28 01:43:48;;;;;;;1999.90;999.90;;;-2.10;99.90;;;;;;5103219;28;20032;-76
2024/01/28 01:46:15;;;;;;;1999.90;999.90;;;-2.10;99.90;;;;;;5090304;28;20032;-77
2024/01/28 01:48:42;;;;;;;1999.90;999.90;;;-2.20;99.90;;;;;;5101315;27;20031;-76
2024/01/28 01:51:11;;;;;;;1999.90;999.90;;;-2.20;99.90;;;;;;5102545;27;20046;-76
2024/01/28 01:53:38;;;;;;;1999.90;999.90;;;-2.10;99.90;;;;;;5104578;27;20592;-76
2024/01/28 01:56:05;;;;;;;1999.90;999.90;;;-2.20;99.90;;;;;;5106284;27;20493;-76
2024/01/28 01:58:31;;;;;;;1999.90;999.90;;;-2.20;99.90;;;;;;5105746;28;20019;-76
2024/01/28 02:00:58;;;;;;;1999.90;999.90;;;-2.20;99.90;;;;;;5106243;28;20126;-75
2024/01/28 02:03:26;;;;;;;1999.90;999.90;;;-2.20;99.90;;;;;;5108348;28;20027;-75
2024/01/28 02:05:52;;;;;;;1999.90;999.90;;;-2.30;99.90;;;;;;5088957;28;20648;-76
2024/01/28 02:08:18;;;;;;;1999.90;999.90;;;-2.40;99.90;;;;;;5106193;28;20031;-75
2024/01/28 02:10:44;;;;;;;1999.90;999.90;;;-2.40;99.90;;;;;;5085070;27;20119;-76
2024/01/28 02:13:10;;;;;;;1999.90;999.90;;;-2.50;99.90;;;;;;5102800;27;20139;-76
2024/01/28 02:15:39;;;;;;;1999.90;999.90;;;-2.50;99.90;;;;;;5105658;28;20478;-75
2024/01/28 02:18:05;;;;;;;1999.90;999.90;;;-2.60;99.90;;;;;;5104598;28;20543;-76
2024/01/28 02:20:31;;;;;;;1999.90;999.90;;;-2.50;99.90;;;;;;5087091;27;20469;-76
2024/01/28 02:22:57;;;;;;;1999.90;999.90;;;-2.60;99.90;;;;;;5103119;28;20032;-76
2024/01/28 02:25:23;;;;;;;1999.90;999.90;;;-2.70;99.90;;;;;;5108647;27;20070;-76
2024/01/28 02:27:49;;;;;;;1999.90;999.90;;;-2.70;99.90;;;;;;5105741;28;20051;-76
2024/01/28 02:30:15;;;;;;;1999.90;999.90;;;-2.90;99.90;;;;;;5087622;28;20050;-76
2024/01/28 02:32:48;;;;;;;1999.90;999.90;;;-2.90;99.90;;;;;;5106180;28;20549;-76
2024/01/28 02:35:13;;;;;;;1999.90;999.90;;;-2.90;99.90;;;;;;5083875;27;20573;-76
2024/01/28 02:37:39;;;;;;;1999.90;999.90;;;-3.10;99.70;;;;;;5104153;28;20126;-76
2024/01/28 02:40:05;;;;;;;1999.90;999.90;;;-3.10;99.70;;;;;;5091478;28;20474;-76
2024/01/28 02:42:31;;;;;;;1999.90;999.90;;;-3.10;99.90;;;;;;5086915;28;20028;-75
2024/01/28 02:44:58;;;;;;;1999.90;999.90;;;-3.20;99.80;;;;;;5103244;27;20090;-76
2024/01/28 02:47:23;;;;;;;1999.90;999.90;;;-3.20;99.90;;;;;;5102751;27;20031;-76
2024/01/28 02:49:49;;;;;;;1999.90;999.90;;;-3.10;99.90;;;;;;5103746;28;20390;-76
2024/01/28 02:52:15;;;;;;;1999.90;999.90;;;-3.10;99.90;;;;;;5107063;28;20027;-75
2024/01/28 02:54:40;;;;;;;1999.90;999.90;;;-3.10;99.90;;;;;;5071949;28;20031;-76
2024/01/28 02:57:06;;;;;;;1999.90;999.90;;;-3.10;99.90;;;;;;5106014;27;20032;-75
2024/01/28 02:59:32;;;;;;;1999.90;999.90;;;-3.10;99.90;;;;;;5101529;28;20028;-76
2024/01/28 03:01:57;;;;;;;1999.90;999.90;;;-3.00;99.90;;;;;;5086480;28;20046;-75
2024/01/28 03:04:23;;;;;;;1999.90;999.90;;;-2.90;99.90;;;;;;5105570;27;20027;-76
2024/01/28 03:06:49;;;;;;;1999.90;999.90;;;-2.90;99.90;;;;;;5103544;28;20039;-76
2024/01/28 03:09:14;;;;;;;1999.90;999.90;;;-2.90;99.90;;;;;;5099637;27;20036;-76
2024/01/28 03:11:40;;;;;;;1999.90;999.90;;;-3.10;99.90;;;;;;5086792;28;20045;-75
2024/01/28 03:14:06;;;;;;;1999.90;999.90;;;-3.20;99.90;;;;;;5104040;28;20224;-76
2024/01/28 03:16:32;;;;;;;1999.90;999.90;;;-3.20;99.90;;;;;;5089628;28;20111;-76
2024/01/28 03:18:58;;;;;;;1999.90;999.90;;;-3.20;99.90;;;;;;5087260;27;20130;-76
2024/01/28 03:21:24;;;;;;;1999.90;999.90;;;-3.00;99.90;;;;;;5085438;28;20032;-77
2024/01/28 03:23:49;;;;;;;1999.90;999.90;;;-2.90;99.90;;;;;;5107625;28;20374;-76
2024/01/28 03:26:15;;;;;;;1999.90;999.90;;;-2.90;99.90;;;;;;5101730;28;20044;-77
2024/01/28 03:28:42;;;;;;;1999.90;999.90;;;-3.00;99.90;;;;;;5102583;28;20078;-76
2024/01/28 03:31:08;;;;;;;1999.90;999.90;;;-3.10;99.90;;;;;;5103047;27;20032;-76
2024/01/28 03:33:34;;;;;;;1999.90;999.90;;;-3.10;99.90;;;;;;5103369;28;20039;-76
2024/01/28 03:36:00;;;;;;;1999.90;999.90;;;-3.00;99.90;;;;;;5104196;27;20042;-76
2024/01/28 03:38:25;;;;;;;1999.90;999.90;;;-3.00;99.90;;;;;;5105275;27;20103;-76
2024/01/28 03:40:51;;;;;;;1999.90;999.90;;;-3.20;99.90;;;;;;5105026;28;20038;-76
2024/01/28 03:43:17;;;;;;;1999.90;999.90;;;-3.20;99.90;;;;;;5105666;27;20036;-76
2024/01/28 03:45:42;;;;;;;1999.90;999.90;;;-3.30;99.90;;;;;;5088683;28;20038;-75
2024/01/28 03:48:08;;;;;;;1999.90;999.90;;;-3.30;99.90;;;;;;5105336;28;20038;-75
2024/01/28 03:50:33;;;;;;;1999.90;999.90;;;-3.50;99.90;;;;;;5087359;28;20035;-76
2024/01/28 03:52:59;;;;;;;1999.90;999.90;;;-3.30;99.90;;;;;;5104552;27;20421;-76
2024/01/28 03:55:25;;;;;;;1999.90;999.90;;;-3.20;99.90;;;;;;5081152;28;20070;-76
2024/01/28 03:57:51;;;;;;;1999.90;999.90;;;-3.30;99.90;;;;;;5089689;27;20020;-76
2024/01/28 04:00:18;;;;;;;1999.90;999.90;;;-3.30;99.90;;;;;;5102110;27;20024;-76
2024/01/28 04:02:44;;;;;;;1999.90;999.90;;;-3.30;99.90;;;;;;5106684;28;20026;-75
2024/01/28 04:05:10;;;;;;;1999.90;999.90;;;-3.30;99.90;;;;;;5105798;28;20378;-75
2024/01/28 04:07:36;;;;;;;1999.90;999.90;;;-3.40;99.90;;;;;;5102580;28;20096;-75
2024/01/28 04:10:01;;;;;;;1999.90;999.90;;;-3.30;99.90;;;;;;5106228;28;20270;-75
2024/01/28 04:12:27;;;;;;;1999.90;999.90;;;-3.40;99.90;;;;;;5084458;28;20088;-75
2024/01/28 04:14:53;;;;;;;1999.90;999.90;;;-3.40;99.90;;;;;;5087035;28;20044;-75
2024/01/28 04:17:18;;;;;;;1999.90;999.90;;;-3.50;99.90;;;;;;5104192;28;20077;-76
2024/01/28 04:19:44;;;;;;;1999.90;999.90;;;-3.50;99.90;;;;;;5103375;28;20024;-75
2024/01/28 04:22:10;;;;;;;1999.90;999.90;;;-3.50;99.90;;;;;;5090452;28;20482;-79
2024/01/28 04:24:36;;;;;;;1999.90;999.90;;;-3.50;99.90;;;;;;5110643;28;20370;-76
2024/01/28 04:27:01;;;;;;;1999.90;999.90;;;-3.50;99.90;;;;;;5112012;28;20031;-75
2024/01/28 04:29:27;;;;;;;1999.90;999.90;;;-3.50;99.90;;;;;;5095365;28;20027;-75
2024/01/28 04:31:56;;;;;;;1999.90;999.90;;;-3.50;99.90;;;;;;5105339;28;20051;-76
2024/01/28 04:34:22;;;;;;;1999.90;999.90;;;-3.60;99.90;;;;;;5105735;28;20055;-76
2024/01/28 04:36:48;;;;;;;1999.90;999.90;;;-3.70;99.90;;;;;;5101677;28;20024;-77
2024/01/28 04:39:14;;;;;;;1999.90;999.90;;;-3.70;99.90;;;;;;5103853;28;20038;-76
2024/01/28 04:41:39;;;;;;;1999.90;999.90;;;-3.80;99.90;;;;;;5082906;28;20402;-77
2024/01/28 04:44:05;;;;;;;1999.90;999.90;;;-3.70;99.90;;;;;;5102024;28;20064;-76
2024/01/28 04:46:31;;;;;;;1999.90;999.90;;;-3.70;99.90;;;;;;5087330;28;20046;-76
2024/01/28 04:48:57;;;;;;;1999.90;999.90;;;-3.70;99.90;;;;;;5099729;28;20055;-75
2024/01/28 04:51:23;;;;;;;1999.90;999.90;;;-3.70;99.90;;;;;;5107468;28;20043;-76
2024/01/28 04:53:49;;;;;;;1999.90;999.90;;;-3.80;99.90;;;;;;5086336;28;20059;-76
2024/01/28 04:56:14;;;;;;;1999.90;999.90;;;-3.70;99.90;;;;;;5106118;28;20054;-76
2024/01/28 04:58:40;;;;;;;1999.90;999.90;;;-3.80;99.90;;;;;;5088683;28;20109;-74
2024/01/28 05:01:07;;;;;;;1999.90;999.90;;;-3.80;99.90;;;;;;5108960;27;20057;-75
2024/01/28 05:03:33;;;;;;;1999.90;999.90;;;-3.70;99.90;;;;;;5110966;27;20015;-76
2024/01/28 05:05:59;;;;;;;1999.90;999.90;;;-3.80;99.90;;;;;;5072505;28;20039;-76
2024/01/28 05:08:25;;;;;;;1999.90;999.90;;;-3.70;99.90;;;;;;5109232;27;20481;-76
2024/01/28 05:10:52;;;;;;;1999.90;999.90;;;-3.70;99.90;;;;;;5107809;28;20208;-76
2024/01/28 05:13:18;;;;;;;1999.90;999.90;;;-3.90;99.90;;;;;;5105159;28;20028;-75
2024/01/28 05:15:43;;;;;;;1999.90;999.90;;;-3.90;99.90;;;;;;5101963;27;20063;-76
2024/01/28 05:18:09;;;;;;;1999.90;999.90;;;-4.00;99.90;;;;;;5107975;28;20133;-74
2024/01/28 05:20:35;;;;;;;1999.90;999.90;;;-4.20;99.90;;;;;;5087006;28;20051;-76
2024/01/28 05:23:00;;;;;;;1999.90;999.90;;;-4.20;99.90;;;;;;5088854;28;20032;-75
2024/01/28 05:25:26;;;;;;;1999.90;999.90;;;-4.10;99.90;;;;;;5108558;27;20086;-75
2024/01/28 05:27:52;;;;;;;1999.90;999.90;;;-4.10;99.90;;;;;;5088743;28;20032;-75
2024/01/28 05:30:18;;;;;;;1999.90;999.90;;;-4.00;99.90;;;;;;5094675;28;20490;-75
2024/01/28 05:32:43;;;;;;;1999.90;999.90;;;-4.10;99.90;;;;;;5088101;28;20451;-76
2024/01/28 05:35:09;;;;;;;1999.90;999.90;;;-4.00;99.90;;;;;;5087179;28;20109;-75
2024/01/28 05:37:37;;;;;;;1999.90;999.90;;;-3.90;99.90;;;;;;5103919;27;20028;-76
2024/01/28 05:40:04;;;;;;;1999.90;999.90;;;-3.90;99.90;;;;;;5103403;28;20023;-76
2024/01/28 05:42:30;;;;;;;1999.90;999.90;;;-3.80;99.90;;;;;;5108333;27;20451;-76
2024/01/28 05:44:56;;;;;;;1999.90;999.90;;;-3.60;99.90;;;;;;5109236;27;20028;-76
2024/01/28 05:47:21;;;;;;;1999.90;999.90;;;-3.50;99.90;;;;;;5109497;27;20067;-75
2024/01/28 05:49:47;;;;;;;1999.90;999.90;;;-3.40;99.90;;;;;;5105697;28;20703;-75
2024/01/28 05:52:12;;;;;;;1999.90;999.90;;;-3.30;99.90;;;;;;5105037;27;20405;-76
2024/01/28 05:54:41;;;;;;;1999.90;999.90;;;-3.20;99.90;;;;;;5094677;28;20067;-76
2024/01/28 05:57:08;;;;;;;1999.90;999.90;;;-3.20;99.90;;;;;;5086368;28;20050;-76
2024/01/28 05:59:34;;;;;;;1999.90;999.90;;;-3.20;99.90;;;;;;5088605;28;20031;-77
2024/01/28 06:01:59;;;;;;;1999.90;999.90;;;-3.20;99.90;;;;;;5087021;28;20028;-76
2024/01/28 06:04:25;;;;;;;1999.90;999.90;;;-3.20;99.90;;;;;;5087139;28;20549;-76
2024/01/28 06:06:51;;;;;;;1999.90;999.90;;;-3.10;99.90;;;;;;5105880;27;20051;-76
2024/01/28 06:09:19;;;;;;;1999.90;999.90;;;-3.10;99.90;;;;;;5078439;28;20070;-76
2024/01/28 06:11:46;;;;;;;1999.90;999.90;;;-3.00;99.90;;;;;;5086955;28;20106;-76
2024/01/28 06:14:11;;;;;;;1999.90;999.90;;;-3.10;99.90;;;;;;5105048;28;20047;-75
2024/01/28 06:16:37;;;;;;;1999.90;999.90;;;-3.10;99.90;;;;;;5089322;27;20032;-76
2024/01/28 06:19:03;;;;;;;1999.90;999.90;;;-3.10;99.90;;;;;;5104080;28;20059;-76
2024/01/28 06:21:29;;;;;;;1999.90;999.90;;;-2.90;99.90;;;;;;5104612;27;20465;-76
2024/01/28 06:23:55;;;;;;;1999.90;999.90;;;-2.90;99.90;;;;;;5104524;28;20036;-76
2024/01/28 06:26:21;;;;;;;1999.90;999.90;;;-3.00;99.90;;;;;;5104173;27;20024;-76
2024/01/28 06:28:47;;;;;;;1999.90;999.90;;;-2.90;99.90;;;;;;5091604;28;20123;-76
2024/01/28 06:31:13;;;;;;;1999.90;999.90;;;-2.80;99.90;;;;;;5055870;28;20042;-76
2024/01/28 06:33:40;;;;;;;1999.90;999.90;;;-2.70;99.90;;;;;;5103836;27;20509;-75
2024/01/28 06:36:06;;;;;;;1999.90;999.90;;;-2.70;99.90;;;;;;5104696;28;20038;-75
2024/01/28 06:38:32;;;;;;;1999.90;999.90;;;-2.60;99.90;;;;;;5107371;28;20031;-75
2024/01/28 06:40:58;;;;;;;1999.90;999.90;;;-2.60;99.90;;;;;;5091275;27;20661;-75
2024/01/28 06:43:25;;;;;;;1999.90;999.90;;;-2.70;99.90;;;;;;5103501;28;20035;-75
2024/01/28 06:45:52;;;;;;;1999.90;999.90;;;-2.70;99.90;;;;;;5105053;28;20027;-76
2024/01/28 06:48:17;;;;;;;1999.90;999.90;;;-2.70;99.90;;;;;;5103826;28;20119;-76
2024/01/28 06:50:44;;;;;;;1999.90;999.90;;;-2.60;99.90;;;;;;5106803;27;20115;-76
2024/01/28 06:53:10;;;;;;;1999.90;999.90;;;-2.50;99.90;;;;;;5103069;27;20037;-75
2024/01/28 06:55:35;;;;;;;1999.90;999.90;;;-2.40;99.90;;;;;;5096436;28;20043;-75
2024/01/28 06:58:01;;;;;;;1999.90;999.90;;;-2.30;99.90;;;;;;5101779;27;20035;-75
2024/01/28 07:00:27;;;;;;;1999.90;999.90;;;-2.20;99.90;;;;;;5103771;27;20031;-75
2024/01/28 07:02:56;;;;;;;1999.90;999.90;;;-2.20;99.90;;;;;;5106838;28;20031;-76
2024/01/28 07:05:21;;;;;;;1999.90;999.90;;;-2.20;99.90;;;;;;5084347;28;20039;-75
2024/01/28 07:07:47;;;;;;;1999.90;999.90;;;-2.30;99.90;;;;;;5104009;28;20032;-75
2024/01/28 07:10:13;;;;;;;1999.90;999.90;;;-2.30;99.90;;;;;;5067848;28;20401;-75
2024/01/28 07:12:39;;;;;;;1999.90;999.90;;;-2.30;99.90;;;;;;5088098;27;20038;-77
2024/01/28 07:15:05;;;;;;;1999.90;999.90;;;-2.20;99.90;;;;;;5104575;27;20047;-75
2024/01/28 07:17:31;;;;;;;1999.90;999.90;;;-2.10;99.90;;;;;;5100028;27;20023;-76
2024/01/28 07:19:57;;;;;;;1999.90;999.90;;;-2.10;99.90;;;;;;5100775;27;20028;-76
2024/01/28 07:22:23;;;;;;;1999.90;999.90;;;-1.90;99.90;;;;;;5104068;28;20024;-75
2024/01/28 07:24:49;;;;;;;1999.90;999.90;;;-1.90;99.90;;;;;;5105010;28;20038;-76
2024/01/28 07:27:15;;;;;;;1999.90;999.90;;;-1.80;99.90;;;;;;5101296;27;20023;-76
2024/01/28 07:29:40;;;;;;;1999.90;999.90;;;-2.00;99.90;;;;;;5106012;28;20043;-76
2024/01/28 07:32:06;;;;;;;1999.90;999.90;;;-2.20;99.90;;;;;;5104552;28;20461;-76
2024/01/28 07:34:32;;;;;;;1999.90;999.90;;;-1.90;99.90;;;;;;5101186;28;20512;-75
2024/01/28 07:36:58;;;;;;;1999.90;999.90;;;-1.90;99.90;;;;;;5087263;28;20024;-75
2024/01/28 07:39:27;;;;;;;1999.90;999.90;;;-1.90;99.90;;;;;;5099751;28;20089;-75
2024/01/28 07:41:53;;;;;;;1999.90;999.90;;;-1.80;99.90;;;;;;5106541;27;20032;-75
2024/01/28 07:44:19;;;;;;;1999.90;999.90;;;-1.80;99.90;;;;;;5108663;27;20612;-76
2024/01/28 07:46:45;;;;;;;1999.90;999.90;;;-1.80;99.90;;;;;;5108459;27;20066;-76
2024/01/28 07:49:11;;;;;;;1999.90;999.90;;;-1.80;99.90;;;;;;5108501;28;20033;-76
2024/01/28 07:51:38;;;;;;;1999.90;999.90;;;-1.90;99.90;;;;;;5085756;28;20040;-76
2024/01/28 07:54:03;;;;;;;1999.90;999.90;;;-2.00;99.90;;;;;;5085275;28;20768;-76
2024/01/28 07:56:29;;;;;;;1999.90;999.90;;;-1.90;99.90;;;;;;5103784;28;20140;-76
2024/01/28 07:58:55;;;;;;;1999.90;999.90;;;-1.80;99.90;;;;;;5070801;28;20522;-76
2024/01/28 08:01:20;;;;;;;1999.90;999.90;;;-1.80;99.90;;;;;;5086085;28;20034;-75
2024/01/28 08:03:46;;;;;;;1999.90;999.90;;;-1.80;99.90;;;;;;5071965;28;20028;-76
2024/01/28 08:06:12;;;;;;;1999.90;999.90;;;-1.70;99.90;;;;;;5085799;28;20104;-76
2024/01/28 08:08:38;;;;;;;1999.90;999.90;;;-1.80;99.90;;;;;;5101915;28;20028;-77
2024/01/28 08:11:03;;;;;;;1999.90;999.90;;;-1.60;99.90;;;;;;5099706;28;20509;-76
2024/01/28 08:13:29;;;;;;;1999.90;999.90;;;-1.60;99.90;;;;;;5099906;27;20027;-75
2024/01/28 08:16:01;;;;;;;1999.90;999.90;;;-1.60;99.90;;;;;;5067231;28;20048;-76
2024/01/28 08:18:28;;;;;;;1999.90;999.90;;;-1.50;99.90;;;;;;5067543;28;20504;-75
2024/01/28 08:20:53;;;;;;;1999.90;999.90;;;-1.80;99.50;;;;;;5083650;28;20059;-76
2024/01/28 08:23:19;;;;;;;1999.90;999.90;;;-1.70;99.60;;;;;;5085632;28;20054;-75
2024/01/28 08:25:46;;;;;;;1999.90;999.90;;;-1.70;99.40;;;;;;5104760;28;20024;-75
2024/01/28 08:28:11;;;;;;;1999.90;999.90;;;-1.70;99.10;;;;;;5088566;28;20054;-75
2024/01/28 08:30:37;;;;;;;1999.90;999.90;;;-1.60;99.30;;;;;;5106282;28;20027;-76
2024/01/28 08:33:03;;;;;;;1999.90;999.90;;;-1.50;99.00;;;;;;5113400;28;20040;-74
2024/01/28 08:35:31;;;;;;;1999.90;999.90;;;-1.30;99.00;;;;;;5098828;28;20032;-75
2024/01/28 08:37:57;;;;;;;1999.90;999.90;;;-1.30;98.80;;;;;;5100628;28;20509;-75
2024/01/28 08:40:24;;;;;;;1999.90;999.90;;;-1.30;98.60;;;;;;5083594;27;20064;-76
2024/01/28 08:42:50;;;;;;;1999.90;999.90;;;-1.40;98.60;;;;;;5111450;27;20024;-75
2024/01/28 08:45:19;;;;;;;1999.90;999.90;;;-1.00;98.60;;;;;;5088068;28;20160;-76
2024/01/28 08:47:45;;;;;;;1999.90;999.90;;;-1.20;98.00;;;;;;5095714;28;20031;-74
2024/01/28 08:50:11;;;;;;;1999.90;999.90;;;-1.10;98.10;;;;;;5112275;27;20114;-76
2024/01/28 08:52:36;;;;;;;1999.90;999.90;;;-0.90;98.10;;;;;;5092656;28;20028;-76
2024/01/28 08:55:02;;;;;;;1999.90;999.90;;;-0.80;97.50;;;;;;5089507;28;20464;-76
2024/01/28 08:57:28;;;;;;;1999.90;999.90;;;-0.80;97.50;;;;;;5064703;28;20081;-77
2024/01/28 08:59:53;;;;;;;1999.90;999.90;;;-0.60;97.30;;;;;;5088920;28;20048;-75
2024/01/28 09:02:19;;;;;;;1999.90;999.90;;;-0.60;96.90;;;;;;5105081;27;20118;-76
2024/01/28 09:04:45;;;;;;;1999.90;999.90;;;-0.70;96.30;;;;;;5108719;27;20102;-76
2024/01/28 09:07:11;;;;;;;1999.90;999.90;;;-0.50;96.40;;;;;;5103516;28;20020;-75
2024/01/28 09:09:36;;;;;;;1999.90;999.90;;;-0.50;95.80;;;;;;5105884;28;20384;-76
2024/01/28 09:12:03;;;;;;;1999.90;999.90;;;-0.60;95.30;;;;;;5073612;28;20485;-75
2024/01/28 09:14:29;;;;;;;1999.90;999.90;;;-0.60;94.80;;;;;;5090980;28;20051;-75
2024/01/28 09:16:54;;;;;;;1999.90;999.90;;;-0.50;95.50;;;;;;5091194;28;20451;-75
2024/01/28 09:19:20;;;;;;;1999.90;999.90;;;-0.30;95.10;;;;;;5103889;28;20028;-76
2024/01/28 09:21:46;;;;;;;1999.90;999.90;;;-0.50;94.70;;;;;;5089950;28;20025;-76
2024/01/28 09:24:12;;;;;;;1999.90;999.90;;;-0.40;95.40;;;;;;5105454;27;20036;-75
2024/01/28 09:26:37;;;;;;;1999.90;999.90;;;-0.10;95.10;;;;;;5099747;27;20070;-75
2024/01/28 09:29:03;;;;;;;1999.90;999.90;;;-0.10;94.80;;;;;;5101904;28;20032;-76
2024/01/28 09:31:29;;;;;;;1999.90;999.90;;;-0.40;94.60;;;;;;5089158;28;20481;-75
2024/01/28 09:33:55;;;;;;;1999.90;999.90;;;-0.40;94.70;;;;;;5088639;28;20027;-75
2024/01/28 09:36:20;;;;;;;1999.90;999.90;;;-0.20;94.70;;;;;;5103659;28;20040;-75
2024/01/28 09:38:46;;;;;;;1999.90;999.90;;;0.10;94.80;;;;;;5106666;27;20617;-76
2024/01/28 09:41:36;;;;;;;1999.90;999.90;;;0.10;94.40;;;;;;5106614;27;20046;-76
2024/01/28 09:44:01;;;;;;;1999.90;999.90;;;0.10;94.50;;;;;;5104611;27;20051;-75
2024/01/28 09:46:27;;;;;;;1999.90;999.90;;;0.30;94.70;;;;;;5087614;28;20063;-73
2024/01/28 09:48:53;;;;;;;1999.90;999.90;;;0.30;94.20;;;;;;5103010;27;20069;-75
2024/01/28 09:51:22;;;;;;;1999.90;999.90;;;0.40;94.70;;;;;;5085784;28;20027;-79
2024/01/28 09:53:48;;;;;;;1999.90;999.90;;;0.30;94.50;;;;;;5103329;27;20040;-76
2024/01/28 09:56:16;;;;;;;1999.90;999.90;;;0.40;94.20;;;;;;5088167;28;20032;-76
2024/01/28 09:58:43;;;;;;;1999.90;999.90;;;0.50;93.80;;;;;;5086402;28;20039;-74
2024/01/28 10:01:13;;;;;;;1999.90;999.90;;;0.40;93.70;;;;;;5104319;27;20427;-76
2024/01/28 10:03:39;;;;;;;1999.90;999.90;;;0.40;93.50;;;;;;5086638;27;20028;-74
2024/01/28 10:06:05;;;;;;;1999.90;999.90;;;0.80;93.50;;;;;;5102549;27;20432;-76
2024/01/28 10:08:31;;;;;;;1999.90;999.90;;;0.60;93.30;;;;;;5086669;28;20041;-75
2024/01/28 10:11:00;;;;;;;1999.90;999.90;;;0.50;93.40;;;;;;5082289;28;20123;-74
2024/01/28 10:13:27;;;;;;;1999.90;999.90;;;0.50;93.80;;;;;;5062760;28;20031;-73
2024/01/28 10:15:57;;;;;;;1999.90;999.90;;;0.50;94.00;;;;;;5088330;27;20088;-77
2024/01/28 10:18:24;;;;;;;1999.90;999.90;;;0.70;94.90;;;;;;5088632;27;20041;-77
2024/01/28 10:20:50;;;;;;;1999.90;999.90;;;0.80;95.00;;;;;;5082458;27;20375;-75
2024/01/28 10:23:17;;;;;;;1999.90;999.90;;;0.80;94.90;;;;;;5087290;27;20039;-76
2024/01/28 10:25:46;;;;;;;1999.90;999.90;;;0.60;95.70;;;;;;5091489;27;20032;-75
2024/01/28 10:28:12;;;;;;;1999.90;999.90;;;0.40;94.50;;;;;;5098768;28;20027;-75
2024/01/28 10:30:39;;;;;;;1999.90;999.90;;;0.10;96.10;;;;;;5085981;28;20404;-75
2024/01/28 10:33:07;;;;;;;1999.90;999.90;;;0.10;97.40;;;;;;5104523;27;20500;-77
2024/01/28 10:35:32;;;;;;;1999.90;999.90;;;0.20;97.20;;;;;;5095955;28;20405;-75
2024/01/28 10:38:00;;;;;;;1999.90;999.90;;;0.20;98.00;;;;;;5100112;27;20032;-73
2024/01/28 10:40:32;;;;;;;1999.90;999.90;;;0.20;97.60;;;;;;5103818;27;20043;-76
2024/01/28 10:43:01;;;;;;;1999.90;999.90;;;0.20;97.90;;;;;;5101223;27;20019;-76
2024/01/28 10:45:29;;;;;;;1999.90;999.90;;;0.30;97.70;;;;;;5086477;28;20028;-75
2024/01/28 10:48:04;;;;;;;1999.90;999.90;;;0.50;97.20;;;;;;5102798;27;20554;-75
2024/01/28 10:50:32;;;;;;;1999.90;999.90;;;0.60;96.90;;;;;;5087146;28;20505;-74
2024/01/28 10:52:59;;;;;;;1999.90;999.90;;;0.80;95.60;;;;;;5100211;27;20771;-75
2024/01/28 10:55:26;;;;;;;1999.90;999.90;;;0.90;95.10;;;;;;5083908;28;20496;-74
2024/01/28 10:57:53;;;;;;;1999.90;999.90;;;0.60;95.60;;;;;;5102693;28;20806;-75
2024/01/28 11:00:20;;;;;;;1999.90;999.90;;;0.80;95.40;;;;;;5101663;28;20023;-75
2024/01/28 11:02:49;;;;;;;1999.90;999.90;;;0.70;95.80;;;;;;5074287;28;20038;-74
2024/01/28 11:05:16;;;;;;;1999.90;999.90;;;0.70;95.20;;;;;;5102731;27;20086;-83
2024/01/28 11:07:42;;;;;;;1999.90;999.90;;;0.90;95.20;;;;;;5080228;28;20035;-85
2024/01/28 11:10:10;;;;;;;1999.90;999.90;;;1.20;95.40;;;;;;5099875;27;20061;-84
2024/01/28 11:12:37;;;;;;;1999.90;999.90;;;1.60;94.50;;;;;;5098399;28;20497;-81
2024/01/28 11:15:03;;;;;;;1999.90;999.90;;;1.60;91.90;;;;;;5082833;28;20056;-81
2024/01/28 11:17:37;;;;;;;1999.90;999.90;;;1.20;93.20;;;;;;5081673;28;20020;-85
2024/01/28 11:20:11;;;;;;;1999.90;999.90;;;1.20;93.80;;;;;;5103876;27;20632;-89
2024/01/28 11:22:49;;;;;;;1999.90;999.90;;;1.50;95.10;;;;;;5084495;28;20039;-88
2024/01/28 11:25:24;;;;;;;1999.90;999.90;;;1.50;94.30;;;;;;5102672;27;20828;-86
2024/01/28 11:27:51;;;;;;;1999.90;999.90;;;1.60;94.50;;;;;;5103549;27;20031;-84
2024/01/28 11:30:24;;;;;;;1999.90;999.90;;;1.30;92.30;;;;;;5104351;28;20390;-81
2024/01/28 11:32:53;;;;;;;1999.90;999.90;;;1.60;93.00;;;;;;5108259;27;20028;-78
2024/01/28 11:35:19;;;;;;;1999.90;999.90;;;1.20;93.70;;;;;;5102038;27;20454;-84
2024/01/28 11:37:52;;;;;;;1999.90;999.90;;;1.20;93.60;;;;;;5094786;28;20035;-80
2024/01/28 11:40:23;;;;;;;1999.90;999.90;;;1.50;93.40;;;;;;5091642;27;20027;-82
2024/01/28 11:42:53;;;;;;;1999.90;999.90;;;1.50;93.30;;;;;;5080723;28;20035;-80
2024/01/28 11:45:21;;;;;;;1999.90;999.90;;;1.70;93.30;;;;;;5069990;28;20077;-80
2024/01/28 11:47:46;;;;;;;1999.90;999.90;;;1.80;92.50;;;;;;5082967;28;20040;-78
2024/01/28 11:50:12;;;;;;;1999.90;999.90;;;1.60;91.80;;;;;;5084717;28;20521;-79
2024/01/28 11:52:38;;;;;;;1999.90;999.90;;;1.60;91.80;;;;;;5100187;28;20031;-80
2024/01/28 11:55:12;;;;;;;1999.90;999.90;;;1.60;92.00;;;;;;5100948;28;20051;-81
2024/01/28 11:57:46;;;;;;;1999.90;999.90;;;1.80;91.70;;;;;;5103837;27;20028;-77